createdAt,value
2022-10-19T05:40:00.413Z,70.47
2022-10-19T05:45:21.536Z,70.87
2022-10-19T05:50:53.244Z,70.58
2022-10-19T05:56:20.018Z,70.89
2022-10-19T06:01:41.002Z,71.05
2022-10-19T06:07:01.731Z,70.29
2022-10-19T06:12:24.969Z,70.91
2022-10-19T06:17:46.024Z,70.77
2022-10-19T06:23:07.957Z,70.98
2022-10-19T06:28:28.968Z,70.77
2022-10-19T06:33:49.911Z,70.51
2022-10-19T06:39:10.661Z,70.74
2022-10-19T06:44:31.661Z,71.05
2022-10-19T06:49:52.270Z,70.70
2022-10-19T06:55:13.348Z,70.62
2022-10-19T07:00:34.544Z,70.75
2022-10-19T07:05:59.814Z,70.43
2022-10-19T07:11:25.031Z,70.54
2022-10-19T07:16:46.021Z,70.37
2022-10-19T07:22:06.723Z,70.39
2022-10-19T07:27:27.807Z,70.42
2022-10-19T07:32:48.424Z,70.23
2022-10-19T07:38:09.499Z,70.42
2022-10-19T07:43:30.508Z,70.29
2022-10-19T07:48:52.166Z,70.45
2022-10-19T07:54:13.710Z,70.31
2022-10-19T07:59:34.868Z,70.41
2022-10-19T08:05:01.330Z,70.33
2022-10-19T08:10:25.187Z,70.37
2022-10-19T08:15:45.996Z,68.68
2022-10-19T08:21:07.098Z,67.87
2022-10-19T08:26:32.821Z,66.63
2022-10-19T08:31:54.409Z,66.88
2022-10-19T08:37:25.852Z,67.71
2022-10-19T08:43:17.956Z,61.05
2022-10-19T08:48:42.900Z,62.39
2022-10-19T08:54:12.496Z,63.07
2022-10-19T08:59:44.946Z,49.67
2022-10-19T09:05:30.127Z,52.49
2022-10-19T09:10:53.547Z,56.54
2022-10-19T09:16:17.560Z,56.77
2022-10-19T09:21:51.588Z,54.75
2022-10-19T09:27:21.717Z,55.36
2022-10-19T09:32:43.073Z,58.55
2022-10-19T09:38:05.655Z,59.23
2022-10-19T09:43:28.121Z,58.56
2022-10-19T09:48:51.959Z,58.64
2022-10-19T09:54:31.242Z,57.16
2022-10-19T09:59:55.573Z,56.67
2022-10-19T10:05:17.257Z,58.18
2022-10-19T10:10:42.618Z,59.10
2022-10-19T10:16:06.448Z,60.11
2022-10-19T10:21:34.710Z,60.92
2022-10-19T10:26:56.815Z,60.56
2022-10-19T10:32:20.170Z,60.23
2022-10-19T10:37:46.502Z,60.12
2022-10-19T10:43:20.680Z,58.85
2022-10-19T10:48:47.704Z,57.63
2022-10-19T10:54:24.083Z,56.37
2022-10-19T11:00:02.071Z,57.93
2022-10-19T11:05:27.253Z,58.03
2022-10-19T11:11:00.299Z,58.93
2022-10-19T11:16:26.030Z,58.86
2022-10-19T11:22:02.116Z,55.83
2022-10-19T11:27:54.499Z,55.89
2022-10-19T11:33:44.370Z,57.19
2022-10-19T11:39:42.036Z,58.01
2022-10-19T11:45:24.122Z,57.40
2022-10-19T11:51:16.801Z,58.09
2022-10-19T11:57:03.973Z,56.67
2022-10-19T12:02:54.607Z,55.13
2022-10-19T12:13:47.350Z,56.35
2022-10-19T12:19:16.530Z,55.47
2022-10-19T12:24:37.121Z,55.55
2022-10-19T12:30:06.621Z,54.63
2022-10-19T12:35:42.660Z,55.04
2022-10-19T12:41:13.558Z,54.74
2022-10-19T12:46:58.797Z,53.83
2022-10-19T12:52:40.318Z,54.09
2022-10-19T12:58:16.648Z,54.57
2022-10-19T13:03:41.246Z,53.93
2022-10-19T13:09:09.033Z,53.80
2022-10-19T13:15:04.365Z,52.22
2022-10-19T13:20:25.477Z,52.71
2022-10-19T13:25:46.385Z,52.91
2022-10-19T13:31:23.507Z,51.18
2022-10-19T13:37:02.071Z,52.08
2022-10-19T13:42:25.664Z,52.83
2022-10-19T13:47:55.072Z,52.40
2022-10-19T13:53:39.847Z,52.22
2022-10-19T13:59:19.658Z,52.50
2022-10-19T14:05:01.926Z,52.75
2022-10-19T14:10:28.289Z,52.87
2022-10-19T14:15:56.915Z,53.38
2022-10-19T14:21:30.528Z,53.24
2022-10-19T14:26:51.331Z,53.79
2022-10-19T14:32:12.763Z,53.89
2022-10-19T14:37:34.947Z,54.60
2022-10-19T14:42:58.655Z,54.84
2022-10-19T14:48:21.115Z,55.04
2022-10-19T14:53:54.593Z,55.50
2022-10-19T14:59:31.771Z,56.10
2022-10-19T15:05:09.383Z,55.83
2022-10-19T15:10:42.723Z,56.10
2022-10-19T15:16:03.892Z,56.43
2022-10-19T15:21:24.737Z,57.07
2022-10-19T15:27:01.791Z,57.35
2022-10-19T15:32:38.109Z,57.70
2022-10-19T15:38:24.933Z,57.82
2022-10-19T15:43:48.460Z,58.91
2022-10-19T15:49:15.475Z,59.00
2022-10-19T15:54:36.632Z,59.50
2022-10-19T16:00:00.222Z,59.60
2022-10-19T16:05:21.225Z,59.83
2022-10-19T16:10:42.380Z,60.17
2022-10-19T16:16:11.337Z,60.46
2022-10-19T16:21:35.683Z,60.89
2022-10-19T16:26:56.529Z,61.40
2022-10-19T16:32:17.183Z,61.39
2022-10-19T16:37:38.121Z,61.79
2022-10-19T16:43:00.479Z,62.53
2022-10-19T16:48:24.051Z,62.94
2022-10-19T16:53:44.845Z,62.29
2022-10-19T16:59:06.527Z,63.19
2022-10-19T17:04:27.283Z,63.13
2022-10-19T17:09:52.307Z,63.10
2022-10-19T17:15:41.574Z,63.60
2022-10-19T17:21:02.493Z,63.66
2022-10-19T17:26:35.887Z,63.52
2022-10-19T17:31:57.654Z,63.53
2022-10-19T17:37:18.567Z,64.21
2022-10-19T17:42:39.395Z,64.35
2022-10-19T17:48:00.223Z,64.13
2022-10-19T17:53:20.969Z,63.92
2022-10-19T17:58:42.674Z,64.24
2022-10-19T18:04:03.675Z,64.95
2022-10-19T18:09:24.655Z,64.57
2022-10-19T18:14:45.462Z,64.46
2022-10-19T18:20:07.010Z,65.39
2022-10-19T18:25:49.284Z,65.14
2022-10-19T18:31:13.681Z,64.79
2022-10-19T18:36:34.845Z,64.92
2022-10-19T18:41:55.832Z,65.13
2022-10-19T18:47:16.505Z,64.77
2022-10-19T18:52:39.281Z,65.02
2022-10-19T18:58:00.339Z,65.56
2022-10-19T19:03:25.202Z,65.70
2022-10-19T19:08:46.653Z,65.55
2022-10-19T19:14:14.451Z,65.76
2022-10-19T19:19:35.649Z,65.72
2022-10-19T19:24:56.409Z,66.04
2022-10-19T19:30:17.469Z,65.78
2022-10-19T19:35:45.159Z,65.80
2022-10-19T19:41:08.821Z,66.19
2022-10-19T19:46:30.257Z,66.04
2022-10-19T19:51:54.938Z,66.22
2022-10-19T19:57:16.138Z,66.21
2022-10-19T20:02:37.390Z,65.99
2022-10-19T20:07:58.618Z,66.01
2022-10-19T20:13:19.664Z,66.46
2022-10-19T20:18:41.694Z,66.28
2022-10-19T20:24:03.545Z,66.37
2022-10-19T20:29:24.619Z,66.78
2022-10-19T20:34:45.561Z,66.23
2022-10-19T20:40:08.795Z,66.46
2022-10-19T20:45:30.236Z,66.71
2022-10-19T20:50:50.628Z,66.91
2022-10-19T20:56:12.408Z,66.09
2022-10-19T21:01:34.981Z,66.24
2022-10-19T21:06:56.179Z,66.28
2022-10-19T21:12:17.014Z,66.47
2022-10-19T21:17:37.786Z,66.55
2022-10-19T21:22:58.614Z,66.54
2022-10-19T21:28:19.636Z,66.55
2022-10-19T21:33:40.612Z,66.42
2022-10-19T21:39:01.582Z,66.19
2022-10-19T21:44:23.205Z,66.56
2022-10-19T21:49:44.180Z,66.11
2022-10-19T21:55:05.139Z,66.88
